createdAt,value
2017-08-15T00:01:39.564Z,5.67
2017-08-15T00:04:07.891Z,5.23
2017-08-15T00:06:35.497Z,5.10
2017-08-15T00:09:03.972Z,5.60
2017-08-15T00:11:31.524Z,4.40
2017-08-15T00:13:59.103Z,4.60
2017-08-15T00:16:27.428Z,4.60
2017-08-15T00:18:55.004Z,4.20
2017-08-15T00:21:22.579Z,4.50
2017-08-15T00:23:50.183Z,4.70
2017-08-15T00:26:17.742Z,4.67
2017-08-15T00:28:45.299Z,4.93
2017-08-15T00:31:12.923Z,4.50
2017-08-15T00:33:41.248Z,5.40
2017-08-15T00:36:08.835Z,4.93
2017-08-15T00:38:36.443Z,4.93
2017-08-15T00:41:04.011Z,4.90
2017-08-15T00:43:31.610Z,4.50
2017-08-15T00:45:59.167Z,5.20
2017-08-15T00:48:26.734Z,4.60
2017-08-15T00:50:54.315Z,4.53
2017-08-15T00:53:22.682Z,4.50
2017-08-15T00:55:51.019Z,5.10
2017-08-15T00:58:18.600Z,5.60
2017-08-15T01:00:46.186Z,4.90
2017-08-15T01:03:14.567Z,4.93
2017-08-15T01:05:42.896Z,4.70
2017-08-15T01:08:10.566Z,5.30
2017-08-15T01:10:38.124Z,4.90
2017-08-15T01:13:05.771Z,4.80
2017-08-15T01:15:33.344Z,4.83
2017-08-15T01:18:00.946Z,4.40
2017-08-15T01:20:28.503Z,3.93
2017-08-15T01:22:56.072Z,4.07
2017-08-15T01:25:23.679Z,4.50
2017-08-15T01:27:51.248Z,4.10
2017-08-15T01:30:18.848Z,4.27
2017-08-15T01:32:46.419Z,4.70
2017-08-15T01:35:13.989Z,4.70
2017-08-15T01:37:48.284Z,4.30
2017-08-15T01:40:15.948Z,4.43
2017-08-15T01:42:43.511Z,5.10
2017-08-15T01:45:11.098Z,5.00
2017-08-15T01:47:38.687Z,5.47
2017-08-15T01:50:07.050Z,5.33
2017-08-15T01:52:34.648Z,5.20
2017-08-15T01:55:02.315Z,4.73
2017-08-15T01:57:29.875Z,4.97
2017-08-15T01:59:57.426Z,4.77
2017-08-15T02:02:25.104Z,4.77
2017-08-15T02:04:52.695Z,4.50
2017-08-15T02:07:20.250Z,4.60
2017-08-15T02:09:47.871Z,4.37
2017-08-15T02:12:15.559Z,3.83
2017-08-15T02:14:43.117Z,4.00
2017-08-15T02:17:10.744Z,4.60
2017-08-15T02:19:38.309Z,4.90
2017-08-15T02:22:05.901Z,3.90
2017-08-15T02:24:33.464Z,4.00
2017-08-15T02:27:01.035Z,4.50
2017-08-15T02:29:28.779Z,4.47
2017-08-15T02:31:56.356Z,4.23
2017-08-15T02:34:23.991Z,4.37
2017-08-15T02:36:51.547Z,3.80
2017-08-15T02:39:19.108Z,5.40
2017-08-15T02:41:46.707Z,4.77
2017-08-15T02:44:15.067Z,4.73
2017-08-15T02:46:42.776Z,3.93
2017-08-15T02:49:10.340Z,4.20
2017-08-15T02:51:38.008Z,4.20
2017-08-15T02:54:05.567Z,4.40
2017-08-15T02:56:33.176Z,4.10
2017-08-15T02:59:01.571Z,4.47
2017-08-15T03:01:29.906Z,4.10
2017-08-15T03:03:57.606Z,4.63
2017-08-15T03:06:26.008Z,4.37
2017-08-15T03:08:53.576Z,4.20
2017-08-15T03:11:21.175Z,4.60
2017-08-15T03:13:48.883Z,5.07
2017-08-15T03:16:16.474Z,4.97
2017-08-15T03:18:44.043Z,4.53
2017-08-15T03:21:11.608Z,4.50
2017-08-15T03:23:39.209Z,5.33
2017-08-15T03:26:06.806Z,5.00
2017-08-15T03:28:34.407Z,5.30
2017-08-15T03:31:02.731Z,4.70
2017-08-15T03:33:30.309Z,5.07
2017-08-15T03:35:57.939Z,4.80
2017-08-15T03:38:25.503Z,4.80
2017-08-15T03:40:53.111Z,4.43
2017-08-15T03:43:21.446Z,5.20
2017-08-15T03:45:49.053Z,4.43
2017-08-15T03:48:17.378Z,4.63
2017-08-15T03:50:44.955Z,5.30
2017-08-15T03:53:12.556Z,4.40
2017-08-15T03:55:40.936Z,4.70
2017-08-15T03:58:08.626Z,4.90
2017-08-15T04:00:36.194Z,4.67
2017-08-15T04:03:03.791Z,4.90
2017-08-15T04:05:31.631Z,4.90
2017-08-15T04:07:59.195Z,4.50
2017-08-15T04:10:26.818Z,4.80
2017-08-15T04:12:54.507Z,5.00
2017-08-15T04:15:22.099Z,4.90
2017-08-15T04:17:50.587Z,5.20
2017-08-15T04:20:18.910Z,5.17
2017-08-15T04:22:46.498Z,5.53
2017-08-15T04:25:14.171Z,5.07
2017-08-15T04:27:41.763Z,5.80
2017-08-15T04:30:09.326Z,5.67
2017-08-15T04:32:37.022Z,6.03
2017-08-15T04:35:04.614Z,5.77
2017-08-15T04:37:33.016Z,5.70
2017-08-15T04:40:00.630Z,5.63
2017-08-15T04:42:28.267Z,5.33
2017-08-15T04:44:55.826Z,5.83
2017-08-15T04:47:23.432Z,6.10
2017-08-15T04:49:51.910Z,6.13
2017-08-15T04:52:20.286Z,6.23
2017-08-15T04:54:48.751Z,5.73
2017-08-15T04:57:16.310Z,6.07
2017-08-15T04:59:44.667Z,7.13
2017-08-15T05:02:12.270Z,6.80
2017-08-15T05:04:40.614Z,6.47
2017-08-15T05:07:08.271Z,5.97
2017-08-15T05:09:35.835Z,6.10
2017-08-15T05:12:03.455Z,5.80
2017-08-15T05:14:31.062Z,5.70
2017-08-15T05:16:58.639Z,5.83
2017-08-15T05:19:26.979Z,6.87
2017-08-15T05:21:54.575Z,6.00
2017-08-15T05:24:23.088Z,5.80
2017-08-15T05:26:50.771Z,6.30
2017-08-15T05:29:18.401Z,6.73
2017-08-15T05:31:45.984Z,6.53
2017-08-15T05:34:13.559Z,6.50
2017-08-15T05:36:41.151Z,7.57
2017-08-15T05:39:09.487Z,6.10
2017-08-15T05:41:37.047Z,6.20
2017-08-15T05:44:04.783Z,6.30
2017-08-15T05:46:32.454Z,6.60
2017-08-15T05:49:00.156Z,6.10
2017-08-15T05:51:28.546Z,6.63
2017-08-15T05:53:56.919Z,7.17
2017-08-15T05:56:25.251Z,7.27
2017-08-15T05:58:52.920Z,7.70
2017-08-15T06:01:20.526Z,8.23
2017-08-15T06:03:48.131Z,7.23
2017-08-15T06:06:15.734Z,6.67
2017-08-15T06:08:44.077Z,6.80
2017-08-15T06:11:11.687Z,7.03
2017-08-15T06:13:39.287Z,6.80
2017-08-15T06:16:07.004Z,7.17
2017-08-15T06:18:34.614Z,7.67
2017-08-15T06:21:02.195Z,8.00
2017-08-15T06:23:29.802Z,7.67
2017-08-15T06:25:57.403Z,7.97
2017-08-15T06:28:24.975Z,8.07
2017-08-15T06:30:53.349Z,6.83
2017-08-15T06:33:20.938Z,6.40
2017-08-15T06:35:48.535Z,6.77
2017-08-15T06:38:16.111Z,7.13
2017-08-15T06:40:43.713Z,7.20
2017-08-15T06:43:11.290Z,6.90
2017-08-15T06:45:38.868Z,7.67
2017-08-15T06:48:06.471Z,7.93
2017-08-15T06:50:34.810Z,7.30
2017-08-15T06:53:02.378Z,6.73
2017-08-15T06:55:29.988Z,6.97
2017-08-15T06:57:57.573Z,7.60
2017-08-15T07:00:25.173Z,9.10
2017-08-15T07:02:52.790Z,8.30
2017-08-15T07:05:20.359Z,8.87
2017-08-15T07:07:48.029Z,8.90
2017-08-15T07:10:15.610Z,9.00
2017-08-15T07:12:43.970Z,8.63
2017-08-15T07:15:11.539Z,8.03
2017-08-15T07:17:39.175Z,6.97
2017-08-15T07:20:06.779Z,7.83
2017-08-15T07:22:34.380Z,7.57
2017-08-15T07:25:02.027Z,7.20
2017-08-15T07:27:29.690Z,6.43
2017-08-15T07:29:57.383Z,5.37
2017-08-15T07:32:24.934Z,5.60
2017-08-15T07:34:52.498Z,5.10
2017-08-15T07:37:20.075Z,5.73
2017-08-15T07:39:47.645Z,4.57
2017-08-15T07:42:16.035Z,5.30
2017-08-15T07:44:43.608Z,5.17
2017-08-15T07:47:11.187Z,5.00
2017-08-15T07:49:38.786Z,5.40
2017-08-15T07:52:06.361Z,5.43
2017-08-15T07:54:34.742Z,5.00
2017-08-15T07:57:03.079Z,5.40
2017-08-15T07:59:30.692Z,5.37
2017-08-15T08:01:58.357Z,5.43
2017-08-15T08:04:25.999Z,5.07
2017-08-15T08:06:54.356Z,4.80
2017-08-15T08:09:21.955Z,5.70
2017-08-15T08:11:49.564Z,6.30
2017-08-15T08:14:17.132Z,5.73
2017-08-15T08:16:44.842Z,5.80
2017-08-15T08:19:12.434Z,5.63
2017-08-15T08:21:40.004Z,5.80
2017-08-15T08:24:07.718Z,4.70
2017-08-15T08:26:35.332Z,5.50
2017-08-15T08:29:02.953Z,4.70
2017-08-15T08:31:30.556Z,4.00
2017-08-15T08:33:59.023Z,4.10
2017-08-15T08:36:26.587Z,3.87
2017-08-15T08:38:54.164Z,3.73
2017-08-15T08:41:22.522Z,3.90
2017-08-15T08:43:50.867Z,3.83
2017-08-15T08:46:18.434Z,3.80
2017-08-15T08:48:46.043Z,3.90
2017-08-15T08:51:13.599Z,3.87
2017-08-15T08:53:41.171Z,3.47
2017-08-15T08:56:08.751Z,3.80
2017-08-15T08:58:36.307Z,3.90
2017-08-15T09:01:03.899Z,3.77
2017-08-15T09:03:31.466Z,3.30
2017-08-15T09:05:59.820Z,3.80
2017-08-15T09:08:27.424Z,3.60
2017-08-15T09:10:55.011Z,3.40
2017-08-15T09:13:22.600Z,3.70
2017-08-15T09:15:50.159Z,3.00
2017-08-15T09:18:17.883Z,3.23
2017-08-15T09:20:45.523Z,3.90
2017-08-15T09:23:13.095Z,3.20
2017-08-15T09:25:40.695Z,3.10
2017-08-15T09:28:08.255Z,3.57
2017-08-15T09:30:35.847Z,3.40
2017-08-15T09:33:04.181Z,3.67
2017-08-15T09:35:31.747Z,3.23
2017-08-15T09:37:59.388Z,3.30
2017-08-15T09:40:27.099Z,3.40
2017-08-15T09:42:55.520Z,3.77
2017-08-15T09:45:23.242Z,3.93
2017-08-15T09:47:51.663Z,4.10
2017-08-15T09:50:19.367Z,3.40
2017-08-15T09:52:46.915Z,3.50
2017-08-15T09:55:14.514Z,3.57
2017-08-15T09:57:42.096Z,3.20
2017-08-15T10:00:09.691Z,2.90
2017-08-15T10:02:37.285Z,3.50
2017-08-15T10:05:04.855Z,3.60
2017-08-15T10:07:32.455Z,4.60
2017-08-15T10:10:00.139Z,4.10
2017-08-15T10:12:27.732Z,3.97
2017-08-15T10:14:55.327Z,3.67
2017-08-15T10:17:22.888Z,3.70
2017-08-15T10:19:50.488Z,3.40
2017-08-15T10:22:18.820Z,3.70
2017-08-15T10:24:46.385Z,3.40
2017-08-15T10:27:14.012Z,4.17
2017-08-15T10:29:41.591Z,3.53
2017-08-15T10:32:09.191Z,3.50
2017-08-15T10:34:37.532Z,3.87
2017-08-15T10:37:05.095Z,4.00
2017-08-15T10:39:32.711Z,3.60
2017-08-15T10:42:00.285Z,3.80
2017-08-15T10:44:27.848Z,3.83
2017-08-15T10:46:55.846Z,3.40
2017-08-15T10:49:23.473Z,3.83
2017-08-15T10:51:51.192Z,3.83
2017-08-15T10:54:19.547Z,3.60
2017-08-15T10:56:47.135Z,3.90
2017-08-15T10:59:15.500Z,3.10
2017-08-15T11:01:43.055Z,3.83
2017-08-15T11:04:10.824Z,3.57
2017-08-15T11:06:39.187Z,3.80
2017-08-15T11:09:06.747Z,3.77
2017-08-15T11:11:34.443Z,3.37
2017-08-15T11:14:02.012Z,3.60
2017-08-15T11:16:29.588Z,3.50
2017-08-15T11:18:57.176Z,3.40
2017-08-15T11:21:24.725Z,3.13
2017-08-15T11:23:52.317Z,3.00
2017-08-15T11:26:20.659Z,3.20
2017-08-15T11:28:48.335Z,3.30
2017-08-15T11:31:16.050Z,2.90
2017-08-15T11:33:43.647Z,3.30
2017-08-15T11:36:11.247Z,3.33
2017-08-15T11:38:38.828Z,3.20
2017-08-15T11:41:06.414Z,3.17
2017-08-15T11:43:33.975Z,3.30
2017-08-15T11:46:01.568Z,2.83
2017-08-15T11:48:29.909Z,2.90
2017-08-15T11:50:57.547Z,3.23
2017-08-15T11:53:25.104Z,3.43
2017-08-15T11:55:52.807Z,3.30
2017-08-15T11:58:20.379Z,3.23
2017-08-15T12:00:48.706Z,3.00
2017-08-15T12:03:16.290Z,3.23
2017-08-15T12:05:43.858Z,3.07
2017-08-15T12:08:11.460Z,3.30
2017-08-15T12:10:39.056Z,3.23
2017-08-15T12:13:06.607Z,2.53
2017-08-15T12:15:35.027Z,3.07
2017-08-15T12:18:03.371Z,2.40
2017-08-15T12:20:30.971Z,2.30
2017-08-15T12:22:59.356Z,2.80
2017-08-15T12:25:26.923Z,2.43
2017-08-15T12:27:54.521Z,2.30
2017-08-15T12:30:22.084Z,2.10
2017-08-15T12:32:49.679Z,2.37
2017-08-15T12:35:18.099Z,2.53
2017-08-15T12:37:45.666Z,2.70
2017-08-15T12:40:13.264Z,2.53
2017-08-15T12:42:41.597Z,2.60
2017-08-15T12:45:09.176Z,2.53
2017-08-15T12:47:36.735Z,2.90
2017-08-15T12:50:04.336Z,2.53
2017-08-15T12:52:31.918Z,2.40
2017-08-15T12:54:59.487Z,2.67
2017-08-15T12:57:27.076Z,2.57
2017-08-15T12:59:54.643Z,4.60
2017-08-15T13:02:22.203Z,4.83
2017-08-15T13:04:49.787Z,4.67
2017-08-15T13:07:17.387Z,4.17
2017-08-15T13:09:44.955Z,5.63
2017-08-15T13:12:12.519Z,6.07
2017-08-15T13:14:40.143Z,5.67
2017-08-15T13:17:07.731Z,4.37
2017-08-15T13:19:35.330Z,5.00
2017-08-15T13:22:03.812Z,5.00
2017-08-15T13:24:32.441Z,4.40
2017-08-15T13:27:00.043Z,4.63
2017-08-15T13:29:28.375Z,3.80
2017-08-15T13:31:55.934Z,4.17
2017-08-15T13:34:23.680Z,5.20
2017-08-15T13:36:51.548Z,4.20
2017-08-15T13:39:19.158Z,4.37
2017-08-15T13:41:46.715Z,4.43
2017-08-15T13:44:14.288Z,5.40
2017-08-15T13:46:42.656Z,4.10
2017-08-15T13:49:11.068Z,5.57
2017-08-15T13:51:38.675Z,3.60
2017-08-15T13:54:06.229Z,4.20
2017-08-15T13:56:33.866Z,4.27
2017-08-15T13:59:01.481Z,4.00
2017-08-15T14:01:29.816Z,4.57
2017-08-15T14:03:57.560Z,4.43
2017-08-15T14:06:25.115Z,4.50
2017-08-15T14:08:52.755Z,4.63
2017-08-15T14:11:20.415Z,4.70
2017-08-15T14:13:48.016Z,4.40
2017-08-15T14:16:15.591Z,4.13
2017-08-15T14:18:43.227Z,9.40
2017-08-15T14:21:10.831Z,4.87
2017-08-15T14:23:39.212Z,6.80
2017-08-15T14:26:07.560Z,4.50
2017-08-15T14:28:35.146Z,4.90
2017-08-15T14:31:03.572Z,4.83
2017-08-15T14:33:31.157Z,5.00
2017-08-15T14:35:58.724Z,4.97
2017-08-15T14:38:26.319Z,4.93
2017-08-15T14:40:53.879Z,5.50
2017-08-15T14:43:21.466Z,5.23
2017-08-15T14:45:49.015Z,5.50
2017-08-15T14:48:16.609Z,5.67
2017-08-15T14:50:44.224Z,5.20
2017-08-15T14:53:11.855Z,5.30
2017-08-15T14:55:40.183Z,6.23
2017-08-15T14:58:07.790Z,5.43
2017-08-15T15:00:35.415Z,5.67
2017-08-15T15:03:03.022Z,5.20
2017-08-15T15:05:30.596Z,5.33
2017-08-15T15:07:58.213Z,5.43
2017-08-15T15:10:26.547Z,5.37
2017-08-15T15:12:54.120Z,5.77
2017-08-15T15:15:21.728Z,5.20
2017-08-15T15:17:49.307Z,6.17
2017-08-15T15:20:16.904Z,5.40
2017-08-15T15:22:44.476Z,5.50
2017-08-15T15:25:12.031Z,5.70
2017-08-15T15:27:39.647Z,5.47
2017-08-15T15:30:07.264Z,5.60
2017-08-15T15:32:35.597Z,5.60
2017-08-15T15:35:03.208Z,5.90
2017-08-15T15:37:31.539Z,5.47
2017-08-15T15:39:59.131Z,6.10
2017-08-15T15:42:27.475Z,5.87
2017-08-15T15:44:55.078Z,5.80
2017-08-15T15:47:23.412Z,5.83
2017-08-15T15:49:50.979Z,6.00
2017-08-15T15:52:18.590Z,5.93
2017-08-15T15:54:46.148Z,6.83
2017-08-15T15:57:13.736Z,5.17
2017-08-15T15:59:41.291Z,5.17
2017-08-15T16:02:08.896Z,5.77
2017-08-15T16:04:37.278Z,5.87
2017-08-15T16:07:05.636Z,5.60
2017-08-15T16:09:33.244Z,5.37
2017-08-15T16:12:00.840Z,5.57
2017-08-15T16:14:28.404Z,5.70
2017-08-15T16:16:56.057Z,5.80
2017-08-15T16:19:23.631Z,6.00
2017-08-15T16:21:51.240Z,5.77
2017-08-15T16:24:18.884Z,6.23
2017-08-15T16:26:46.586Z,6.07
2017-08-15T16:29:14.195Z,6.43
2017-08-15T16:31:42.531Z,6.10
2017-08-15T16:34:10.106Z,6.53
2017-08-15T16:36:37.781Z,6.13
2017-08-15T16:39:06.127Z,6.17
2017-08-15T16:41:33.715Z,6.50
2017-08-15T16:44:02.063Z,7.17
2017-08-15T16:46:29.655Z,6.73
2017-08-15T16:48:57.978Z,6.50
2017-08-15T16:51:25.552Z,6.83
2017-08-15T16:53:53.164Z,6.80
2017-08-15T16:56:20.752Z,6.80
2017-08-15T16:58:48.478Z,7.83
2017-08-15T17:01:16.043Z,6.97
2017-08-15T17:03:43.619Z,6.87
2017-08-15T17:06:11.216Z,7.33
2017-08-15T17:08:38.788Z,7.10
2017-08-15T17:11:06.389Z,7.40
2017-08-15T17:13:33.976Z,7.27
2017-08-15T17:16:01.571Z,6.67
2017-08-15T17:18:30.020Z,8.73
2017-08-15T17:20:57.628Z,8.23
2017-08-15T17:23:25.976Z,8.50
2017-08-15T17:25:53.583Z,8.60
2017-08-15T17:28:21.192Z,9.40
2017-08-15T17:30:48.858Z,9.50
2017-08-15T17:33:16.476Z,10.30
2017-08-15T17:35:44.100Z,9.60
2017-08-15T17:38:12.507Z,9.27
2017-08-15T17:40:40.177Z,8.93
2017-08-15T17:43:07.879Z,9.67
2017-08-15T17:45:35.452Z,10.40
2017-08-15T17:48:03.842Z,10.03
2017-08-15T17:50:31.543Z,10.60
2017-08-15T17:52:59.234Z,12.00
2017-08-15T17:55:26.836Z,13.00
2017-08-15T17:57:54.415Z,9.37
2017-08-15T18:00:22.050Z,9.10
2017-08-15T18:02:49.610Z,8.90
2017-08-15T18:05:17.198Z,8.37
2017-08-15T18:07:44.795Z,8.93
2017-08-15T18:10:12.363Z,8.90
2017-08-15T18:12:40.739Z,10.30
2017-08-15T18:15:09.180Z,8.90
2017-08-15T18:17:36.775Z,8.73
2017-08-15T18:20:05.144Z,7.80
2017-08-15T18:22:33.484Z,9.10
2017-08-15T18:25:01.091Z,8.90
2017-08-15T18:27:29.428Z,10.40
2017-08-15T18:29:57.076Z,8.20
2017-08-15T18:32:24.719Z,8.37
2017-08-15T18:34:52.293Z,8.47
2017-08-15T18:37:19.873Z,9.20
2017-08-15T18:39:47.472Z,8.80
2017-08-15T18:42:15.911Z,9.43
2017-08-15T18:44:43.502Z,9.40
2017-08-15T18:47:11.967Z,8.70
2017-08-15T18:49:39.580Z,10.00
2017-08-15T18:52:07.168Z,9.37
2017-08-15T18:54:35.735Z,9.43
2017-08-15T18:57:03.359Z,8.90
2017-08-15T18:59:30.967Z,9.47
2017-08-15T19:01:58.542Z,9.97
2017-08-15T19:04:26.164Z,9.63
2017-08-15T19:06:53.785Z,9.63
2017-08-15T19:09:22.286Z,9.80
2017-08-15T19:11:49.860Z,10.00
2017-08-15T19:14:17.475Z,9.03
2017-08-15T19:16:46.020Z,10.37
2017-08-15T19:19:13.595Z,8.60
2017-08-15T19:21:41.151Z,8.97
2017-08-15T19:24:08.829Z,9.00
2017-08-15T19:26:37.231Z,9.67
2017-08-15T19:29:05.614Z,9.53
2017-08-15T19:31:33.192Z,10.60
2017-08-15T19:34:00.809Z,10.50
2017-08-15T19:36:29.172Z,12.83
2017-08-15T19:38:57.534Z,12.03
2017-08-15T19:41:25.134Z,11.87
2017-08-15T19:43:52.772Z,12.73
2017-08-15T19:46:21.169Z,10.53
2017-08-15T19:48:48.751Z,12.30
2017-08-15T19:51:16.320Z,11.27
2017-08-15T19:53:43.939Z,9.90
2017-08-15T19:56:11.511Z,10.13
2017-08-15T19:58:39.154Z,8.77
2017-08-15T20:01:07.491Z,10.40
2017-08-15T20:03:35.234Z,9.70
2017-08-15T20:06:02.799Z,9.53
2017-08-15T20:08:30.395Z,8.60
2017-08-15T20:10:58.016Z,8.33
2017-08-15T20:13:25.595Z,8.80
2017-08-15T20:15:53.223Z,8.07
2017-08-15T20:18:20.806Z,8.23
2017-08-15T20:20:48.379Z,8.60
2017-08-15T20:23:15.989Z,8.60
2017-08-15T20:25:43.587Z,7.33
2017-08-15T20:28:11.211Z,8.40
2017-08-15T20:30:38.808Z,9.00
2017-08-15T20:33:06.431Z,7.80
2017-08-15T20:35:34.004Z,8.50
2017-08-15T20:38:01.580Z,7.97
2017-08-15T20:40:29.184Z,7.83
2017-08-15T20:42:56.804Z,7.97
2017-08-15T20:45:24.406Z,7.90
2017-08-15T20:47:52.020Z,7.80
2017-08-15T20:50:19.590Z,8.57
2017-08-15T20:52:47.201Z,9.30
2017-08-15T20:55:14.775Z,8.87
2017-08-15T20:57:42.411Z,9.50
2017-08-15T21:00:10.011Z,9.43
2017-08-15T21:02:37.575Z,9.13
2017-08-15T21:05:05.208Z,9.50
2017-08-15T21:07:32.799Z,8.77
2017-08-15T21:10:00.371Z,9.30
2017-08-15T21:12:28.751Z,8.27
2017-08-15T21:14:57.240Z,9.30
2017-08-15T21:17:25.715Z,9.10
2017-08-15T21:19:54.091Z,9.30
2017-08-15T21:22:22.468Z,9.47
2017-08-15T21:24:50.822Z,9.07
2017-08-15T21:27:18.395Z,9.27
2017-08-15T21:29:46.007Z,9.27
2017-08-15T21:32:13.579Z,8.90
2017-08-15T21:34:41.221Z,8.57
2017-08-15T21:37:08.803Z,9.83
2017-08-15T21:39:36.376Z,9.57
2017-08-15T21:42:03.978Z,9.87
2017-08-15T21:44:31.573Z,10.40
2017-08-15T21:46:59.179Z,10.60
2017-08-15T21:49:27.524Z,10.70
2017-08-15T21:51:55.134Z,9.70
2017-08-15T21:54:22.700Z,9.90
2017-08-15T21:56:50.300Z,9.50
2017-08-15T21:59:17.949Z,9.63
2017-08-15T22:01:51.182Z,10.07
2017-08-15T22:04:19.675Z,9.23
2017-08-15T22:06:47.377Z,9.37
2017-08-15T22:09:14.968Z,9.00
2017-08-15T22:11:42.569Z,8.40
2017-08-15T22:14:10.188Z,8.53
2017-08-15T22:16:37.828Z,7.93
2017-08-15T22:19:05.404Z,7.67
2017-08-15T22:21:33.012Z,8.37
2017-08-15T22:24:00.579Z,7.80
2017-08-15T22:26:28.151Z,7.13
2017-08-15T22:28:55.751Z,7.67
2017-08-15T22:31:24.223Z,7.10
2017-08-15T22:33:52.632Z,7.87
2017-08-15T22:36:20.223Z,8.13
2017-08-15T22:38:47.831Z,8.13
2017-08-15T22:41:16.175Z,8.33
2017-08-15T22:43:43.795Z,7.30
2017-08-15T22:46:11.351Z,7.33
2017-08-15T22:48:38.911Z,7.33
2017-08-15T22:51:06.516Z,7.63
2017-08-15T22:53:34.077Z,7.77
2017-08-15T22:56:01.684Z,7.17
2017-08-15T22:58:29.243Z,7.10
2017-08-15T23:00:56.828Z,6.23
2017-08-15T23:03:24.424Z,6.93
2017-08-15T23:05:52.739Z,5.00
2017-08-15T23:08:20.295Z,4.50
2017-08-15T23:10:47.900Z,5.30
2017-08-15T23:13:15.463Z,5.40
2017-08-15T23:15:43.084Z,5.73
2017-08-15T23:18:10.660Z,4.97
2017-08-15T23:20:38.227Z,5.33
2017-08-15T23:23:05.831Z,4.77
2017-08-15T23:25:33.394Z,4.33
2017-08-15T23:28:00.961Z,4.40
2017-08-15T23:30:28.550Z,4.33
2017-08-15T23:32:56.151Z,4.10
2017-08-15T23:35:24.510Z,4.00
2017-08-15T23:37:52.076Z,4.27
2017-08-15T23:40:19.683Z,3.70
2017-08-15T23:42:47.242Z,4.20
2017-08-15T23:45:15.192Z,5.23
2017-08-15T23:47:42.821Z,4.80
2017-08-15T23:50:11.155Z,5.10
2017-08-15T23:52:38.786Z,5.00
2017-08-15T23:55:06.376Z,4.43
2017-08-15T23:57:33.939Z,4.80
